• Join FlightAware (Why Join?)
  • Login
  • US Flag 
06:08AM EST


 

Airport Tracker/Info


-or-


 

Live Flight TrackerFlight Track Log ✈ RPA3247 ✈ 26-Jun-2013 ✈ KBTV - KDCA

Flight Track Log - Related Links

Times and Time Zones

All times are in EDT time to prevent confusion due to time zone crossing. See the RPA3247 flight status page for this flight to view local times or setup timezone preferences in your user account.

Time Position Orientation Groundspeed Altitude Reporting Facility
EDT Latitude Longitude Course Direction KTS MPH feet Rate Location/Type
05:47PM 44.3214 -73.1742 188° South 248 285 5,600  Level Boston Center
05:48PM 43.8832 -73.3626 195° South  Level FlightAware Approximate
05:48PM 44.2444 -73.1531 169° South 263 303 8,200  Level Boston Center
05:49PM 43.7664 -73.4065 195° South  Level FlightAware Approximate
05:49PM 44.1825 -73.0914 144° Southeast 281 323 10,400  Level Boston Center
05:50PM 43.6496 -73.4502 198° South  Level FlightAware Approximate
05:50PM 44.1056 -73.0242 148° Southeast 309 356 12,000  Level Boston Center
05:51PM 43.5347 -73.5025 198° South  Level FlightAware Approximate
05:51PM 44.0269 -72.9539 147° Southeast 328 377 14,000  Level Boston Center
05:52PM 43.4178 -73.5431 188° South  Level FlightAware Approximate
05:52PM 43.9333 -72.9100 161° South 340 391 15,700  Level Boston Center
05:53PM 43.8333 -72.8978 175° South 353 406 17,400 1,680 Climbing Boston Center
05:54PM 43.7311 -72.8769 172° South 373 429 19,100 1,800 Climbing Boston Center
05:55PM 43.6272 -72.8561 172° South 373 429 21,100 1,920 Climbing Boston Center
05:56PM 43.5189 -72.8294 170° South 378 435 23,000 1,860 Climbing Boston Center
05:57PM 43.4086 -72.8089 172° South 392 451 24,900 1,800 Climbing Boston Center
05:58PM 43.2961 -72.7853 171° South 406 467 26,600 1,560 Climbing Boston Center
05:59PM 43.1814 -72.7619 172° South 411 473 28,100 1,380 Climbing Boston Center
06:00PM 43.0522 -72.7328 171° South 426 490 29,400 1,200 Climbing Boston Center
06:01PM 42.9356 -72.7094 172° South 426 490 30,500 1,020 Climbing Boston Center
06:02PM 42.8336 -72.6836 169° South 426 490 31,500 1,140 Climbing Boston Center
06:03PM 42.7150 -72.6606 172° South 426 490 32,800 1,200 Climbing Boston Center
06:04PM 42.6025 -72.6375 171° South 426 490 34,000 600 Climbing Boston Center
06:05PM 42.4878 -72.6147 172° South 421 484 34,000  Level Boston Center
06:06PM 42.3753 -72.5975 174° South 421 484 34,000  Level Boston Center
06:07PM 42.2586 -72.6111 185° South 416 479 34,000  Level Boston Center
06:08PM 42.1461 -72.6278 186° South 416 479 34,000  Level Boston Center
06:09PM 42.0375 -72.6386 184° South 410 472 34,000  Level Boston Center
06:10PM 41.9250 -72.6578 187° South 405 466 34,000  Level Boston Center
06:11PM 41.7958 -72.6794 187° South 411 473 34,000  Level Boston Center
06:12PM 41.6811 -72.6958 186° South 423 487 34,000  Level Boston Center
06:13PM 41.5664 -72.7147 187° South 423 487 34,000  Level Boston Center
06:14PM 41.4664 -72.7228 183° South 417 480 34,000  Level Boston Center
06:15PM 41.3497 -72.7414 187° South 417 480 34,000  Level Boston Center
06:16PM 41.2203 -72.7631 187° South 427 491 34,000  Level Boston Center
06:17PM 41.1058 -72.7761 185° South 427 491 34,000  Level Boston Center
06:18PM 40.9869 -72.7947 187° South 427 491 34,000  Level Boston Center
06:19PM 40.8806 -72.8408 198° South 427 491 34,000  Level Boston Center
06:20PM 40.7883 -72.9281 216° Southwest 408 470 34,000  Level Boston Center
06:21PM 40.7047 -72.9958 212° Southwest 398 458 34,000  Level Boston Center
06:22PM 40.6106 -73.0825 215° Southwest 410 472 34,000  Level Boston Center
06:23PM 40.5183 -73.1636 214° Southwest 417 480 34,000  Level Boston Center
06:24PM 40.4261 -73.2497 215° Southwest 417 480 34,000  Level Boston Center
06:25PM 40.3297 -73.3328 213° Southwest 417 480 34,000  Level Boston Center
06:26PM 40.2331 -73.4131 212° Southwest 417 480 34,000  Level Boston Center
06:28PM 40.0275 -73.5622 209° Southwest 400 460 34,000  Level Washington Center
06:29PM 39.9267 -73.6408 211° Southwest 410 472 34,000  Level Washington Center
06:30PM 39.8303 -73.7272 215° Southwest 418 481 34,000  Level Washington Center
06:31PM 39.7358 -73.8161 216° Southwest 425 489 34,000  Level Washington Center
06:32PM 39.6392 -73.9019 214° Southwest 425 489 34,000 -480 Level Washington Center
06:33PM 39.5444 -73.9875 215° Southwest 425 489 33,100 -1,620 Descending Washington Center
06:34PM 39.4475 -74.0731 214° Southwest 420 483 30,900 -2,220 Descending Washington Center
06:35PM 39.3528 -74.1611 216° Southwest 420 483 28,600 -2,220 Descending Washington Center
06:36PM 39.2642 -74.2406 215° Southwest 414 476 26,500 -2,220 Descending Washington Center
06:37PM 39.1753 -74.3225 216° Southwest 409 471 24,300 -2,160 Descending Washington Center
06:38PM 39.0886 -74.3989 214° Southwest 396 456 22,200 -2,040 Descending Washington Center
06:39PM 39.0039 -74.4725 214° Southwest 384 442 20,200 -1,980 Descending Washington Center
06:40PM 38.9381 -74.5589 226° Southwest 363 418 18,300 -2,040 Descending Washington Center
06:41PM 38.9139 -74.6792 256° West 337 388 16,200 -1,200 Descending Washington Center
06:42PM 38.8897 -74.8050 256° West 347 399 15,900 -180 Descending Washington Center
06:43PM 38.8656 -74.9278 256° West 355 409 15,900  Level Washington Center
06:44PM 38.8411 -75.0481 255° West 360 414 15,900  Level Washington Center
06:45PM 38.8167 -75.1733 256° West 360 414 15,900  Level Washington Center
06:46PM 38.8044 -75.3014 263° West 355 409 15,900  Level Washington Center
06:47PM 38.7986 -75.4264 267° West 355 409 15,900  Level Washington Center
06:48PM 38.7883 -75.5544 264° West 360 414 15,900  Level Washington Center
06:49PM 38.7819 -75.6822 266° West 367 422 16,000 -660 Climbing Washington Center
06:50PM 38.7714 -75.8019 264° West 361 415 14,600 -1,680 Descending Washington Center
06:51PM 38.7628 -75.9272 265° West 355 409 12,800 -1,800 Descending Washington Center
06:52PM 38.7561 -76.0442 266° West 348 400 11,000 -960 Descending Washington Center
06:53PM 38.7639 -76.1508 275° West 340 391 10,900  Descending Washington Center
06:54PM 38.7697 -76.2653 274° West 341 392 11,000  Climbing Washington Center
06:55PM 38.7833 -76.4333 276° West 286 329 11,000 -420 Level Potomac TRACON
06:56PM 38.8000 -76.5333 282° West 284 327 10,000 -480 Descending Potomac TRACON
06:57PM 38.8000 -76.6500 270° West 275 316 10,000  Level Potomac TRACON
06:58PM 38.8000 -76.7333 270° West 274 315 10,000 -600 Level Potomac TRACON
06:59PM 38.7833 -76.8333 258° West 271 312 8,900 -1,440 Descending Potomac TRACON
07:00PM 38.7500 -76.9000 237° Southwest 282 325 7,100 -1,920 Descending Potomac TRACON
07:01PM 38.6667 -76.9333 197° South 269 310 5,100 -2,040 Descending Potomac TRACON
07:02PM 38.6667 -77.0000 270° West 267 307 3,100 -1,380 Descending Potomac TRACON
07:04PM 38.7333 -77.0333 339° North 228 262 2,300 -780 Descending Potomac TRACON
07:05PM 38.7833 -77.0333 360° North 180 207 1,500 -960 Descending Potomac TRACON
07:06PM 38.8167 -77.0333 360° North 141 162 400 -1,140 Descending Potomac TRACON